Time;durP1;ratioP1;P1;durP2;ratioP2;P2;SDS_P1;SDS_P2;PMS_P1;PMS_P2;Temp;Humidity;BMP_temperature;BMP_pressure;BME280_temperature;BME280_humidity;BME280_pressure;Samples;Min_cycle;Max_cycle;Signal;HPM_P1;HPM_P2
2023/05/16 00:00:37;;;;;;;6.57;4.43;;;16.00;99.90;;;;;;10220391;28;20581;-61
2023/05/16 00:05:28;;;;;;;6.15;3.58;;;15.80;99.90;;;;;;10211339;28;20023;-62
2023/05/16 00:10:19;;;;;;;8.45;4.40;;;15.80;99.90;;;;;;10201400;28;20168;-61
2023/05/16 00:15:13;;;;;;;5.53;4.22;;;15.80;99.90;;;;;;10211703;28;20035;-61
2023/05/16 00:20:09;;;;;;;7.18;4.68;;;15.80;99.90;;;;;;10214358;27;20461;-61
2023/05/16 00:25:00;;;;;;;5.82;3.80;;;15.60;99.90;;;;;;10196997;28;20023;-71
2023/05/16 00:29:51;;;;;;;10.35;5.03;;;15.70;99.90;;;;;;10220460;28;20028;-62
2023/05/16 00:34:41;;;;;;;7.75;5.25;;;15.60;99.90;;;;;;10222090;27;20040;-70
2023/05/16 00:39:32;;;;;;;6.30;4.30;;;15.50;99.90;;;;;;10219188;28;20102;-67
2023/05/16 00:44:23;;;;;;;7.53;4.30;;;15.60;99.90;;;;;;10218059;28;20081;-66
2023/05/16 00:49:13;;;;;;;8.18;4.97;;;15.70;99.90;;;;;;10217358;28;20028;-65
2023/05/16 00:54:04;;;;;;;6.65;4.65;;;15.70;99.90;;;;;;10218862;28;20120;-65
2023/05/16 00:58:55;;;;;;;6.75;4.38;;;15.60;99.90;;;;;;10227151;27;20595;-66
2023/05/16 01:03:46;;;;;;;9.02;5.05;;;15.50;99.90;;;;;;10235790;27;20165;-65
2023/05/16 01:08:37;;;;;;;6.78;4.63;;;15.40;99.90;;;;;;10227308;28;20016;-63
2023/05/16 01:13:50;;;;;;;7.55;5.18;;;15.40;99.90;;;;;;10214501;27;20392;-64
2023/05/16 01:18:46;;;;;;;7.28;4.88;;;15.40;99.90;;;;;;10227469;28;20186;-62
2023/05/16 01:23:47;;;;;;;6.30;5.38;;;15.30;99.90;;;;;;10227690;28;20361;-66
2023/05/16 01:28:39;;;;;;;6.88;4.97;;;15.30;99.90;;;;;;10232668;27;20042;-63
2023/05/16 01:33:29;;;;;;;7.18;5.00;;;15.30;99.90;;;;;;10226123;28;20035;-61
2023/05/16 01:38:35;;;;;;;9.18;5.53;;;15.30;99.90;;;;;;10226083;28;20020;-62
2023/05/16 01:43:48;;;;;;;9.30;6.78;;;15.20;99.90;;;;;;10237275;27;20047;-63
2023/05/16 01:49:02;;;;;;;9.55;6.70;;;15.20;99.90;;;;;;10214600;28;20077;-68
2023/05/16 01:53:57;;;;;;;9.00;6.15;;;15.30;99.90;;;;;;10224975;28;20040;-69
2023/05/16 01:58:50;;;;;;;11.50;6.43;;;15.20;99.90;;;;;;10208975;28;20092;-60
2023/05/16 02:03:40;;;;;;;8.88;6.05;;;15.40;99.90;;;;;;10222267;28;20055;-64
2023/05/16 02:08:31;;;;;;;11.48;7.13;;;15.30;99.90;;;;;;10223826;28;20480;-67
2023/05/16 02:13:22;;;;;;;11.30;6.88;;;15.20;99.90;;;;;;10192586;28;20039;-61
2023/05/16 02:18:12;;;;;;;14.02;8.40;;;15.20;99.90;;;;;;10206196;28;20038;-62
2023/05/16 02:23:03;;;;;;;14.57;8.00;;;15.20;99.90;;;;;;10206269;28;20448;-65
2023/05/16 02:27:55;;;;;;;10.38;7.22;;;15.20;99.90;;;;;;10235192;27;20504;-67
2023/05/16 02:32:45;;;;;;;11.90;7.03;;;15.00;99.90;;;;;;10224385;28;20071;-62
2023/05/16 02:37:36;;;;;;;13.00;7.57;;;14.70;99.90;;;;;;10224065;28;20020;-63
2023/05/16 02:42:28;;;;;;;11.77;6.47;;;14.70;99.90;;;;;;10223605;28;20016;-62
2023/05/16 02:47:18;;;;;;;13.02;7.43;;;14.70;99.90;;;;;;10215804;28;20016;-61
2023/05/16 02:52:09;;;;;;;12.50;6.88;;;14.70;99.90;;;;;;10210730;27;20027;-65
2023/05/16 02:57:00;;;;;;;15.07;7.00;;;14.60;99.90;;;;;;10222861;28;20431;-75
2023/05/16 03:01:50;;;;;;;11.15;6.70;;;14.50;99.90;;;;;;10177335;28;20044;-67
2023/05/16 03:06:41;;;;;;;10.45;6.50;;;14.60;99.90;;;;;;10197408;27;20442;-63
2023/05/16 03:11:32;;;;;;;13.00;7.50;;;14.70;99.90;;;;;;10217098;28;20569;-62
2023/05/16 03:16:22;;;;;;;11.65;6.88;;;14.70;99.90;;;;;;10217070;28;20462;-65
2023/05/16 03:21:13;;;;;;;10.20;6.45;;;14.50;99.90;;;;;;10223371;28;20312;-66
2023/05/16 03:26:04;;;;;;;11.60;7.55;;;14.50;99.90;;;;;;10222152;28;20408;-62
2023/05/16 03:30:55;;;;;;;12.45;6.93;;;14.30;99.90;;;;;;10203160;28;20083;-61
2023/05/16 03:35:46;;;;;;;15.70;8.20;;;14.20;99.90;;;;;;10226246;27;20039;-65
2023/05/16 03:40:36;;;;;;;17.38;8.45;;;14.10;99.90;;;;;;10222602;28;20072;-65
2023/05/16 03:45:29;;;;;;;13.10;8.05;;;14.00;99.90;;;;;;10218050;28;20027;-63
2023/05/16 03:50:19;;;;;;;14.18;7.85;;;14.10;99.90;;;;;;10224657;27;20081;-65
2023/05/16 03:55:13;;;;;;;15.48;8.18;;;14.10;99.90;;;;;;10202386;28;20035;-62
2023/05/16 04:00:06;;;;;;;11.55;6.75;;;14.00;99.90;;;;;;10220542;28;20051;-65
2023/05/16 04:04:57;;;;;;;13.55;7.35;;;14.00;99.90;;;;;;10219171;28;20027;-66
2023/05/16 04:09:48;;;;;;;13.52;8.80;;;13.80;99.90;;;;;;10220024;28;20028;-72
2023/05/16 04:14:38;;;;;;;13.18;7.65;;;13.80;99.90;;;;;;10206881;28;20424;-69
2023/05/16 04:19:29;;;;;;;13.30;6.60;;;13.90;99.90;;;;;;10219955;28;20016;-67
2023/05/16 04:24:20;;;;;;;12.73;7.20;;;13.90;99.90;;;;;;10202105;28;20499;-63
2023/05/16 04:29:13;;;;;;;13.73;7.43;;;13.90;99.90;;;;;;10219743;28;20032;-67
2023/05/16 04:34:04;;;;;;;15.98;7.22;;;13.80;99.90;;;;;;10204536;28;20505;-68
2023/05/16 04:38:56;;;;;;;10.88;6.82;;;13.80;99.90;;;;;;10219361;28;20103;-66
2023/05/16 04:43:46;;;;;;;14.63;7.70;;;13.60;99.90;;;;;;10219487;28;20023;-65
2023/05/16 04:48:37;;;;;;;12.80;6.85;;;13.60;99.90;;;;;;10225510;28;20024;-65
2023/05/16 04:53:28;;;;;;;12.07;6.78;;;13.60;99.90;;;;;;10219622;28;20089;-62
2023/05/16 04:58:18;;;;;;;13.10;6.38;;;13.70;99.90;;;;;;10222190;28;20023;-62
2023/05/16 05:03:09;;;;;;;12.43;6.55;;;13.60;99.90;;;;;;10216045;28;20070;-61
2023/05/16 05:08:00;;;;;;;14.48;7.45;;;13.70;99.90;;;;;;10198687;28;20053;-62
2023/05/16 05:12:51;;;;;;;12.68;7.65;;;13.80;99.90;;;;;;10179237;28;20528;-61
2023/05/16 05:17:41;;;;;;;11.65;6.18;;;13.80;99.90;;;;;;10201417;28;20031;-62
2023/05/16 05:22:32;;;;;;;15.70;7.80;;;13.80;99.90;;;;;;10195836;28;20485;-62
2023/05/16 05:27:24;;;;;;;12.70;6.90;;;13.70;99.90;;;;;;10218484;28;20404;-61
2023/05/16 05:32:14;;;;;;;16.65;7.88;;;13.60;99.90;;;;;;10218693;28;20071;-62
2023/05/16 05:37:05;;;;;;;13.40;6.93;;;13.70;99.90;;;;;;10219808;28;20039;-62
2023/05/16 05:41:56;;;;;;;10.45;5.82;;;13.50;99.90;;;;;;10220925;28;20027;-62
2023/05/16 05:46:46;;;;;;;11.27;5.95;;;13.60;99.90;;;;;;10220239;28;20082;-66
2023/05/16 05:51:37;;;;;;;10.60;6.82;;;13.70;99.90;;;;;;10207560;28;20389;-61
2023/05/16 05:56:28;;;;;;;10.93;7.07;;;13.50;99.90;;;;;;10225476;28;20422;-61
2023/05/16 06:01:20;;;;;;;10.93;5.60;;;13.80;99.90;;;;;;10224937;28;20627;-61
2023/05/16 06:06:10;;;;;;;11.65;5.85;;;13.70;99.90;;;;;;10217751;28;20642;-63
2023/05/16 06:11:01;;;;;;;11.20;6.25;;;13.80;99.90;;;;;;10214950;27;20341;-63
2023/05/16 06:15:52;;;;;;;11.77;6.47;;;13.80;99.90;;;;;;10193824;28;20126;-62
2023/05/16 06:20:43;;;;;;;10.95;6.45;;;14.10;99.90;;;;;;10218395;28;20016;-63
2023/05/16 06:25:33;;;;;;;15.05;7.35;;;14.10;99.90;;;;;;10234889;27;20028;-62
2023/05/16 06:30:24;;;;;;;11.57;6.88;;;14.00;99.90;;;;;;10224895;28;20509;-62
2023/05/16 06:35:15;;;;;;;11.48;6.30;;;14.10;99.90;;;;;;10224368;28;20030;-60
2023/05/16 06:40:06;;;;;;;11.43;5.72;;;14.20;99.90;;;;;;10224645;28;20027;-61
2023/05/16 06:44:57;;;;;;;11.00;6.63;;;14.20;99.90;;;;;;10205234;27;20027;-67
2023/05/16 06:49:48;;;;;;;10.88;5.22;;;14.10;99.90;;;;;;10224427;28;20031;-62
2023/05/16 06:54:38;;;;;;;12.15;6.03;;;14.10;99.90;;;;;;10229576;27;20146;-63
2023/05/16 06:59:29;;;;;;;10.30;5.00;;;14.10;99.90;;;;;;10224738;27;20050;-63
2023/05/16 07:04:20;;;;;;;10.98;6.13;;;14.00;99.90;;;;;;10215004;28;20385;-62
2023/05/16 07:09:11;;;;;;;11.88;5.55;;;14.10;99.90;;;;;;10235526;27;20127;-62
2023/05/16 07:14:01;;;;;;;10.60;5.25;;;14.20;99.90;;;;;;10211127;28;20063;-63
2023/05/16 07:18:52;;;;;;;12.63;6.47;;;14.30;99.90;;;;;;10214939;27;20019;-61
2023/05/16 07:23:42;;;;;;;7.55;4.75;;;14.30;99.90;;;;;;10222361;28;20023;-61
2023/05/16 07:28:33;;;;;;;8.85;5.25;;;14.30;99.90;;;;;;10223339;28;20024;-73
2023/05/16 07:33:24;;;;;;;10.15;5.10;;;14.30;99.90;;;;;;10228080;27;20110;-67
2023/05/16 07:38:15;;;;;;;8.68;4.60;;;14.40;99.90;;;;;;10221816;28;20031;-66
2023/05/16 07:43:05;;;;;;;7.53;4.88;;;14.40;99.90;;;;;;10221932;28;20046;-63
2023/05/16 07:47:56;;;;;;;7.72;4.00;;;14.50;99.90;;;;;;10230864;27;20054;-63
2023/05/16 07:52:47;;;;;;;7.60;4.88;;;14.40;99.90;;;;;;10221500;28;20031;-63
2023/05/16 07:57:37;;;;;;;8.90;4.28;;;14.50;99.90;;;;;;10221328;28;20072;-62
2023/05/16 08:02:29;;;;;;;7.78;4.30;;;14.50;99.90;;;;;;10214636;27;20044;-64
2023/05/16 08:07:20;;;;;;;7.80;3.58;;;14.30;99.90;;;;;;10219424;28;20031;-61
2023/05/16 08:12:10;;;;;;;7.20;3.70;;;14.20;99.90;;;;;;10207302;28;20050;-64
2023/05/16 08:17:01;;;;;;;7.47;3.55;;;14.30;99.90;;;;;;10210781;27;20466;-62
2023/05/16 08:21:52;;;;;;;5.65;3.42;;;14.30;99.90;;;;;;10220684;28;20032;-61
2023/05/16 08:26:42;;;;;;;4.45;2.83;;;14.20;99.90;;;;;;10220437;28;20145;-60
2023/05/16 08:31:33;;;;;;;6.80;3.13;;;14.30;99.90;;;;;;10231225;27;20512;-62
2023/05/16 08:36:25;;;;;;;4.97;2.80;;;14.40;99.90;;;;;;10185921;28;20023;-62
2023/05/16 08:41:15;;;;;;;6.03;2.90;;;14.30;99.90;;;;;;10220505;28;20047;-61
2023/05/16 08:46:07;;;;;;;5.75;2.30;;;14.40;99.90;;;;;;10232683;28;20516;-63
2023/05/16 08:50:59;;;;;;;4.72;3.47;;;14.40;99.90;;;;;;10201780;28;20015;-62
2023/05/16 08:55:51;;;;;;;4.55;2.42;;;14.30;99.90;;;;;;10219872;28;20035;-61
2023/05/16 09:00:43;;;;;;;5.13;3.10;;;14.40;99.90;;;;;;10224992;28;20520;-62
2023/05/16 09:05:34;;;;;;;4.18;2.65;;;14.40;99.90;;;;;;10212419;28;20042;-63
2023/05/16 09:10:25;;;;;;;3.40;2.40;;;14.40;99.90;;;;;;10219100;28;20051;-61
2023/05/16 09:15:19;;;;;;;5.30;2.00;;;14.30;99.90;;;;;;10215876;28;20031;-62
2023/05/16 09:20:17;;;;;;;5.00;1.83;;;14.30;99.90;;;;;;10226180;28;20058;-62
2023/05/16 09:25:08;;;;;;;2.63;1.55;;;14.20;99.90;;;;;;10227246;28;20039;-62
2023/05/16 09:29:59;;;;;;;2.28;1.40;;;14.10;99.90;;;;;;10225616;28;20381;-62
2023/05/16 09:34:51;;;;;;;2.58;1.50;;;14.20;99.90;;;;;;10227736;28;20100;-62
2023/05/16 09:39:50;;;;;;;6.55;1.67;;;14.10;99.90;;;;;;10226748;28;20246;-63
2023/05/16 09:44:51;;;;;;;2.65;1.50;;;14.10;99.90;;;;;;10213588;28;20019;-63
2023/05/16 09:49:44;;;;;;;2.05;1.60;;;14.20;99.90;;;;;;10214590;28;20036;-69
2023/05/16 09:54:34;;;;;;;2.75;1.70;;;14.30;99.90;;;;;;10223919;28;20061;-69
2023/05/16 09:59:29;;;;;;;1.50;1.15;;;14.60;99.90;;;;;;10225959;28;20042;-61
2023/05/16 10:04:19;;;;;;;2.38;1.70;;;14.70;99.90;;;;;;10217767;27;20031;-61
2023/05/16 10:09:11;;;;;;;3.25;1.52;;;14.70;99.90;;;;;;10224502;28;20019;-64
2023/05/16 10:14:04;;;;;;;5.03;1.60;;;14.50;99.90;;;;;;10193106;28;20092;-61
2023/05/16 10:18:55;;;;;;;4.10;1.67;;;14.50;99.90;;;;;;10224954;28;20012;-63
2023/05/16 10:23:48;;;;;;;4.22;1.77;;;14.60;99.90;;;;;;10207008;28;20043;-63
2023/05/16 10:28:40;;;;;;;2.88;1.20;;;14.50;99.90;;;;;;10224617;28;20307;-65
2023/05/16 10:33:31;;;;;;;2.53;1.20;;;14.40;99.90;;;;;;10225171;28;20070;-62
2023/05/16 10:38:23;;;;;;;2.63;1.40;;;14.40;99.90;;;;;;10226008;28;20080;-63
2023/05/16 10:43:24;;;;;;;3.00;1.45;;;14.50;99.90;;;;;;10226161;28;20120;-61
2023/05/16 10:48:15;;;;;;;4.72;1.92;;;14.50;99.90;;;;;;10223523;28;20047;-64
2023/05/16 10:53:18;;;;;;;3.20;1.23;;;14.50;99.90;;;;;;10224245;28;20031;-69
2023/05/16 10:58:09;;;;;;;1.88;1.55;;;14.30;99.90;;;;;;10205803;28;20443;-65
2023/05/16 11:03:18;;;;;;;1.73;0.93;;;14.30;99.90;;;;;;10220350;28;20104;-63
2023/05/16 11:08:10;;;;;;;1.70;1.00;;;14.20;99.90;;;;;;10233149;27;20023;-64
2023/05/16 11:13:07;;;;;;;1.60;0.95;;;14.10;99.90;;;;;;10210791;28;20031;-66
2023/05/16 11:18:09;;;;;;;1.67;1.00;;;14.20;99.90;;;;;;10219825;27;20027;-63
2023/05/16 11:23:17;;;;;;;1.95;1.05;;;14.30;99.90;;;;;;10226447;27;20027;-65
2023/05/16 11:28:11;;;;;;;1.33;0.85;;;14.20;99.90;;;;;;10222511;28;20031;-66
2023/05/16 11:33:02;;;;;;;1.15;0.60;;;14.20;99.90;;;;;;10234116;27;20118;-65
2023/05/16 11:37:52;;;;;;;0.68;0.60;;;14.10;99.90;;;;;;10223497;27;20240;-62
2023/05/16 11:42:46;;;;;;;1.35;0.80;;;14.10;99.90;;;;;;10221339;28;20038;-61
2023/05/16 11:47:41;;;;;;;1.63;0.70;;;14.10;99.90;;;;;;10225426;27;20035;-62
2023/05/16 11:52:32;;;;;;;1.20;0.52;;;14.00;99.90;;;;;;10221891;28;20126;-63
2023/05/16 11:57:23;;;;;;;0.57;0.55;;;14.10;99.90;;;;;;10221496;28;20570;-63
2023/05/16 12:02:13;;;;;;;1.13;0.40;;;14.10;99.90;;;;;;10225161;27;20042;-63
2023/05/16 12:07:04;;;;;;;1.52;1.35;;;14.10;99.90;;;;;;10221418;28;20027;-64
2023/05/16 12:11:55;;;;;;;1.35;0.90;;;14.10;99.90;;;;;;10188732;28;20032;-68
2023/05/16 12:16:47;;;;;;;1.23;0.57;;;14.20;99.90;;;;;;10217819;28;20076;-62
2023/05/16 12:21:38;;;;;;;1.75;0.60;;;14.20;99.90;;;;;;10211096;28;20024;-63
2023/05/16 12:26:32;;;;;;;1.42;0.90;;;14.00;99.90;;;;;;10185330;28;20028;-69
2023/05/16 12:31:23;;;;;;;1.40;0.50;;;14.00;99.90;;;;;;10216862;27;20032;-71
2023/05/16 12:36:15;;;;;;;0.82;0.60;;;13.90;99.90;;;;;;10220211;28;20417;-69
2023/05/16 12:41:06;;;;;;;1.33;0.70;;;14.00;99.90;;;;;;10208069;28;20028;-62
2023/05/16 12:45:57;;;;;;;3.08;0.60;;;14.00;99.90;;;;;;10221255;28;20031;-61
2023/05/16 12:50:48;;;;;;;1.20;0.73;;;14.10;99.90;;;;;;10220151;28;20508;-64
2023/05/16 12:55:39;;;;;;;2.35;0.90;;;14.10;99.90;;;;;;10228158;28;20485;-62
2023/05/16 13:00:30;;;;;;;3.05;0.88;;;14.10;99.90;;;;;;10218838;27;20048;-63
2023/05/16 13:05:22;;;;;;;1.75;0.70;;;14.10;99.90;;;;;;10228051;28;20073;-63
2023/05/16 13:10:13;;;;;;;2.65;1.30;;;13.90;99.90;;;;;;10226826;28;20024;-62
2023/05/16 13:15:06;;;;;;;1.92;0.70;;;14.00;99.90;;;;;;10214224;28;20439;-63
2023/05/16 13:19:56;;;;;;;3.67;1.52;;;14.00;99.90;;;;;;10227351;28;20032;-62
2023/05/16 13:24:48;;;;;;;0.90;0.70;;;14.10;99.90;;;;;;10232258;27;20015;-76
2023/05/16 13:29:39;;;;;;;1.25;1.00;;;14.00;99.90;;;;;;10230944;27;20016;-67
2023/05/16 13:34:31;;;;;;;1.75;1.13;;;13.80;99.90;;;;;;10227366;28;20535;-62
2023/05/16 13:39:21;;;;;;;1.35;0.90;;;13.70;99.90;;;;;;10218430;27;20023;-62
2023/05/16 13:44:12;;;;;;;0.98;0.80;;;13.80;99.90;;;;;;10230062;27;20026;-67
2023/05/16 13:49:02;;;;;;;1.60;0.85;;;13.80;99.90;;;;;;10226748;28;20028;-61
2023/05/16 13:53:53;;;;;;;2.05;1.08;;;13.80;99.90;;;;;;10229401;27;20143;-64
2023/05/16 13:58:44;;;;;;;1.52;0.80;;;13.80;99.90;;;;;;10225639;28;20047;-62
2023/05/16 14:03:35;;;;;;;2.53;0.95;;;13.80;99.90;;;;;;10225288;28;20024;-62
2023/05/16 14:08:47;;;;;;;2.53;1.10;;;13.80;99.90;;;;;;10225142;28;20027;-64
2023/05/16 14:13:39;;;;;;;2.65;1.00;;;13.90;99.90;;;;;;10207080;28;20032;-63
2023/05/16 14:18:29;;;;;;;1.17;0.90;;;14.00;99.90;;;;;;10218132;28;20385;-71
2023/05/16 14:23:20;;;;;;;1.33;0.80;;;13.80;99.90;;;;;;10242601;27;20035;-81
2023/05/16 14:28:11;;;;;;;0.82;0.60;;;13.90;99.90;;;;;;10228367;28;20067;-77
2023/05/16 14:33:02;;;;;;;1.75;0.90;;;14.00;99.90;;;;;;10228792;28;20031;-71
2023/05/16 14:37:52;;;;;;;1.88;1.00;;;14.20;99.90;;;;;;10233181;27;20079;-72
2023/05/16 14:42:43;;;;;;;2.72;1.00;;;14.20;99.90;;;;;;10228630;28;20062;-65
2023/05/16 14:47:34;;;;;;;1.80;1.00;;;14.20;99.90;;;;;;10225920;28;20102;-68
